createdAt,value
2018-02-12T00:02:23.462Z,93062.58
2018-02-12T00:04:50.081Z,93070.63
2018-02-12T00:07:16.678Z,93065.09
2018-02-12T00:09:43.278Z,93071.00
2018-02-12T00:12:09.936Z,93075.39
2018-02-12T00:14:36.510Z,93067.97
2018-02-12T00:17:03.837Z,93072.44
2018-02-12T00:19:30.445Z,93077.57
2018-02-12T00:21:57.027Z,93086.72
2018-02-12T00:24:24.437Z,93096.91
2018-02-12T00:26:51.022Z,93103.86
2018-02-12T00:29:18.343Z,93115.56
2018-02-12T00:31:44.912Z,93119.95
2018-02-12T00:34:12.263Z,93130.19
2018-02-12T00:36:39.687Z,93133.05
2018-02-12T00:39:06.260Z,93136.19
2018-02-12T00:41:33.577Z,93136.88
2018-02-12T00:44:00.421Z,93129.50
2018-02-12T00:46:26.998Z,93137.25
2018-02-12T00:48:54.314Z,93137.19
2018-02-12T00:51:20.934Z,93132.70
2018-02-12T00:53:47.633Z,93139.94
2018-02-12T00:56:14.230Z,93129.53
2018-02-12T00:58:40.801Z,93129.05
2018-02-12T01:01:08.162Z,93129.72
2018-02-12T01:03:34.753Z,93137.89
2018-02-12T01:06:02.106Z,93141.88
2018-02-12T01:08:28.811Z,93147.68
2018-02-12T01:10:55.380Z,93148.73
2018-02-12T01:13:21.971Z,93145.83
2018-02-12T01:15:48.585Z,93138.55
2018-02-12T01:18:15.173Z,93134.20
2018-02-12T01:20:41.784Z,93133.32
2018-02-12T01:23:08.382Z,93133.32
2018-02-12T01:25:35.735Z,93133.32
2018-02-12T01:28:02.346Z,93130.89
2018-02-12T01:30:28.952Z,93139.19
2018-02-12T01:32:55.537Z,93134.02
2018-02-12T01:35:22.103Z,93131.48
2018-02-12T01:37:49.405Z,93127.09
2018-02-12T01:40:16.033Z,93130.25
2018-02-12T01:42:42.593Z,93126.05
2018-02-12T01:45:09.187Z,93131.50
2018-02-12T01:47:35.764Z,93136.20
2018-02-12T01:50:18.614Z,93133.87
2018-02-12T01:52:45.219Z,93141.88
2018-02-12T01:55:11.882Z,93141.28
2018-02-12T01:57:39.198Z,93140.13
2018-02-12T02:00:05.829Z,93139.83
2018-02-12T02:02:32.419Z,93148.87
2018-02-12T02:04:59.797Z,93146.71
2018-02-12T02:07:26.389Z,93138.70
2018-02-12T02:09:52.965Z,93134.90
2018-02-12T02:12:19.573Z,93133.72
2018-02-12T02:14:46.140Z,93131.50
2018-02-12T02:17:12.706Z,93128.64
2018-02-12T02:19:39.334Z,93129.39
2018-02-12T02:22:05.878Z,93134.48
2018-02-12T02:24:32.523Z,93132.58
2018-02-12T02:26:59.098Z,93136.80
2018-02-12T02:29:26.400Z,93138.55
2018-02-12T02:31:53.010Z,93136.60
2018-02-12T02:34:19.573Z,93139.17
2018-02-12T02:36:46.169Z,93141.61
2018-02-12T02:39:13.471Z,93143.05
2018-02-12T02:41:40.104Z,93142.38
2018-02-12T02:44:06.734Z,93142.72
2018-02-12T02:46:33.321Z,93146.53
2018-02-12T02:49:00.634Z,93148.27
2018-02-12T02:51:27.247Z,93152.97
2018-02-12T02:53:53.833Z,93146.04
2018-02-12T02:56:20.717Z,93149.30
2018-02-12T02:58:47.335Z,93146.79
2018-02-12T03:01:14.001Z,93151.33
2018-02-12T03:03:40.644Z,93150.25
2018-02-12T03:06:07.264Z,93149.43
2018-02-12T03:08:33.836Z,93157.31
2018-02-12T03:11:00.493Z,93155.66
2018-02-12T03:13:27.075Z,93148.74
2018-02-12T03:15:53.683Z,93154.23
2018-02-12T03:18:20.266Z,93149.01
2018-02-12T03:20:46.846Z,93156.89
2018-02-12T03:23:13.430Z,93154.17
2018-02-12T03:25:40.008Z,93148.66
2018-02-12T03:28:06.605Z,93148.52
2018-02-12T03:30:33.240Z,93150.71
2018-02-12T03:32:59.834Z,93146.61
2018-02-12T03:35:26.562Z,93160.08
2018-02-12T03:37:53.885Z,93159.16
2018-02-12T03:40:20.453Z,93168.23
2018-02-12T03:42:47.033Z,93165.69
2018-02-12T03:45:13.771Z,93170.20
2018-02-12T03:47:40.378Z,93169.36
2018-02-12T03:50:06.949Z,93169.59
2018-02-12T03:52:33.545Z,93173.50
2018-02-12T03:55:00.154Z,93174.05
2018-02-12T03:57:26.689Z,93182.70
2018-02-12T03:59:54.009Z,93188.58
2018-02-12T04:02:20.578Z,93192.23
2018-02-12T04:04:47.166Z,93193.41
2018-02-12T04:07:14.492Z,93192.30
2018-02-12T04:09:41.099Z,93191.27
2018-02-12T04:12:07.709Z,93189.87
2018-02-12T04:14:35.015Z,93197.44
2018-02-12T04:17:02.036Z,93193.26
2018-02-12T04:19:28.601Z,93197.53
2018-02-12T04:21:55.173Z,93201.81
2018-02-12T04:24:22.489Z,93201.64
2018-02-12T04:26:50.134Z,93204.98
2018-02-12T04:29:16.679Z,93202.60
2018-02-12T04:31:43.245Z,93209.24
2018-02-12T04:34:10.573Z,93203.13
2018-02-12T04:36:37.204Z,93204.70
2018-02-12T04:39:03.830Z,93200.66
2018-02-12T04:41:30.438Z,93198.08
2018-02-12T04:43:57.015Z,93207.52
2018-02-12T04:46:23.638Z,93204.97
2018-02-12T04:48:50.194Z,93208.28
2018-02-12T04:51:16.766Z,93209.64
2018-02-12T04:53:44.132Z,93213.91
2018-02-12T04:56:10.709Z,93218.75
2018-02-12T04:58:37.295Z,93216.66
2018-02-12T05:01:04.661Z,93213.63
2018-02-12T05:03:31.231Z,93218.34
2018-02-12T05:05:57.839Z,93211.13
2018-02-12T05:08:24.413Z,93218.36
2018-02-12T05:10:50.995Z,93217.57
2018-02-12T05:13:18.412Z,93219.24
2018-02-12T05:15:45.012Z,93217.62
2018-02-12T05:18:11.587Z,93216.70
2018-02-12T05:20:38.159Z,93223.36
2018-02-12T05:23:04.775Z,93219.83
2018-02-12T05:25:32.114Z,93226.34
2018-02-12T05:27:58.747Z,93224.58
2018-02-12T05:30:26.165Z,93222.95
2018-02-12T05:32:52.786Z,93226.42
2018-02-12T05:35:19.357Z,93229.52
2018-02-12T05:37:45.965Z,93230.60
2018-02-12T05:40:12.531Z,93232.67
2018-02-12T05:42:39.118Z,93240.41
2018-02-12T05:45:05.710Z,93244.89
2018-02-12T05:47:32.311Z,93247.16
2018-02-12T05:49:58.877Z,93252.83
2018-02-12T05:52:25.476Z,93250.45
2018-02-12T05:54:52.098Z,93255.20
2018-02-12T05:57:18.733Z,93251.68
2018-02-12T05:59:45.325Z,93258.73
2018-02-12T06:02:11.935Z,93261.42
2018-02-12T06:04:38.532Z,93273.16
2018-02-12T06:07:05.890Z,93273.73
2018-02-12T06:09:33.230Z,93276.15
2018-02-12T06:11:59.791Z,93282.53
2018-02-12T06:14:27.129Z,93288.09
2018-02-12T06:16:54.446Z,93292.23
2018-02-12T06:19:21.081Z,93308.18
2018-02-12T06:21:47.647Z,93313.57
2018-02-12T06:24:14.325Z,93316.80
2018-02-12T06:26:40.958Z,93304.38
2018-02-12T06:29:08.303Z,93309.44
2018-02-12T06:31:35.606Z,93317.41
2018-02-12T06:34:02.314Z,93335.19
2018-02-12T06:36:28.875Z,93340.34
2018-02-12T06:38:55.498Z,93338.89
2018-02-12T06:41:22.108Z,93342.69
2018-02-12T06:43:49.470Z,93353.16
2018-02-12T06:46:16.048Z,93358.69
2018-02-12T06:48:43.397Z,93360.70
2018-02-12T06:51:10.802Z,93355.27
2018-02-12T06:53:38.093Z,93367.72
2018-02-12T06:56:04.682Z,93372.60
2018-02-12T06:58:31.285Z,93380.20
2018-02-12T07:00:57.882Z,93382.28
2018-02-12T07:03:24.503Z,93385.75
2018-02-12T07:05:51.867Z,93384.53
2018-02-12T07:08:18.502Z,93386.75
2018-02-12T07:10:45.098Z,93388.48
2018-02-12T07:13:11.686Z,93388.19
2018-02-12T07:15:38.282Z,93397.17
2018-02-12T07:18:04.917Z,93395.77
2018-02-12T07:20:32.254Z,93401.80
2018-02-12T07:22:58.954Z,93403.23
2018-02-12T07:25:26.311Z,93404.83
2018-02-12T07:27:52.959Z,93408.22
2018-02-12T07:30:19.538Z,93413.00
2018-02-12T07:32:46.190Z,93423.30
2018-02-12T07:35:12.807Z,93424.01
2018-02-12T07:37:39.390Z,93422.70
2018-02-12T07:40:06.045Z,93426.39
2018-02-12T07:42:32.632Z,93429.63
2018-02-12T07:45:00.199Z,93435.28
2018-02-12T07:47:27.551Z,93438.56
2018-02-12T07:49:54.946Z,93442.70
2018-02-12T07:52:21.548Z,93442.25
2018-02-12T07:54:48.899Z,93443.40
2018-02-12T07:57:15.475Z,93449.55
2018-02-12T07:59:42.347Z,93456.01
2018-02-12T08:02:08.971Z,93455.89
2018-02-12T08:04:35.526Z,93456.09
2018-02-12T08:07:02.157Z,93458.39
2018-02-12T08:09:28.746Z,93462.00
2018-02-12T08:11:55.392Z,93463.81
2018-02-12T08:14:22.025Z,93465.77
2018-02-12T08:16:48.638Z,93460.08
2018-02-12T08:19:15.246Z,93467.39
2018-02-12T08:21:41.868Z,93464.45
2018-02-12T08:24:08.530Z,93470.11
2018-02-12T08:26:35.192Z,93473.00
2018-02-12T08:29:02.547Z,93480.41
2018-02-12T08:31:29.871Z,93482.58
2018-02-12T08:33:56.645Z,93483.39
2018-02-12T08:36:23.984Z,93485.77
2018-02-12T08:38:50.563Z,93491.33
2018-02-12T08:41:17.190Z,93490.84
2018-02-12T08:43:43.813Z,93493.47
2018-02-12T08:46:10.475Z,93502.25
2018-02-12T08:48:37.120Z,93508.17
2018-02-12T08:51:03.712Z,93510.39
2018-02-12T08:53:30.354Z,93515.92
2018-02-12T08:55:57.876Z,93518.68
2018-02-12T08:58:24.494Z,93529.14
2018-02-12T09:00:51.132Z,93531.04
2018-02-12T09:03:17.724Z,93530.87
2018-02-12T09:05:44.343Z,93540.98
2018-02-12T09:08:11.004Z,93538.33
2018-02-12T09:10:38.414Z,93536.77
2018-02-12T09:13:05.026Z,93547.33
2018-02-12T09:15:31.603Z,93550.73
2018-02-12T09:17:58.223Z,93548.77
2018-02-12T09:20:24.855Z,93541.04
2018-02-12T09:22:51.482Z,93551.03
2018-02-12T09:25:18.070Z,93546.05
2018-02-12T09:27:44.776Z,93552.41
2018-02-12T09:30:12.103Z,93553.73
2018-02-12T09:32:38.694Z,93553.56
2018-02-12T09:35:05.334Z,93558.55
2018-02-12T09:37:31.945Z,93560.77
2018-02-12T09:39:58.553Z,93567.68
2018-02-12T09:42:25.203Z,93565.67
2018-02-12T09:44:51.780Z,93566.16
2018-02-12T09:47:18.362Z,93569.60
2018-02-12T09:49:44.981Z,93570.73
2018-02-12T09:52:12.362Z,93569.83
2018-02-12T09:54:39.043Z,93573.31
2018-02-12T09:57:05.677Z,93575.45
2018-02-12T09:59:32.239Z,93576.05
2018-02-12T10:01:59.568Z,93576.40
2018-02-12T10:04:26.362Z,93585.80
2018-02-12T10:06:52.963Z,93607.75
2018-02-12T10:09:19.544Z,93609.13
2018-02-12T10:11:46.202Z,93621.33
2018-02-12T10:14:12.758Z,93621.37
2018-02-12T10:16:39.518Z,93625.61
2018-02-12T10:19:06.836Z,93632.09
2018-02-12T10:21:33.426Z,93639.18
2018-02-12T10:24:00.056Z,93640.33
2018-02-12T10:26:26.665Z,93646.44
2018-02-12T10:28:53.244Z,93646.31
2018-02-12T10:31:19.972Z,93648.58
2018-02-12T10:33:46.554Z,93647.23
2018-02-12T10:36:13.144Z,93648.45
2018-02-12T10:38:40.438Z,93649.37
2018-02-12T10:41:07.023Z,93653.08
2018-02-12T10:43:34.392Z,93644.60
2018-02-12T10:46:01.079Z,93652.93
2018-02-12T10:48:27.725Z,93653.02
2018-02-12T10:50:54.361Z,93647.13
2018-02-12T10:53:20.980Z,93646.98
2018-02-12T10:55:47.606Z,93655.72
2018-02-12T10:58:14.182Z,93659.11
2018-02-12T11:00:41.578Z,93652.91
2018-02-12T11:03:08.224Z,93652.98
2018-02-12T11:05:34.912Z,93652.34
2018-02-12T11:08:01.925Z,93643.98
2018-02-12T11:10:28.549Z,93641.25
2018-02-12T11:12:55.132Z,93643.58
2018-02-12T11:15:21.770Z,93637.70
2018-02-12T11:17:48.541Z,93644.41
2018-02-12T11:20:15.843Z,93639.39
2018-02-12T11:22:42.454Z,93631.23
2018-02-12T11:25:09.031Z,93635.89
2018-02-12T11:27:36.410Z,93633.14
2018-02-12T11:30:03.079Z,93651.52
2018-02-12T11:32:29.729Z,93655.02
2018-02-12T11:34:56.347Z,93662.23
2018-02-12T11:37:22.934Z,93655.11
2018-02-12T11:39:49.662Z,93660.70
2018-02-12T11:42:16.264Z,93655.70
2018-02-12T11:44:42.840Z,93649.77
2018-02-12T11:47:09.447Z,93656.41
2018-02-12T11:49:36.063Z,93657.13
2018-02-12T11:52:02.705Z,93656.68
2018-02-12T11:54:29.398Z,93660.14
2018-02-12T11:56:55.969Z,93661.95
2018-02-12T11:59:23.286Z,93664.00
2018-02-12T12:01:49.885Z,93661.66
2018-02-12T12:04:16.549Z,93665.76
2018-02-12T12:06:43.145Z,93662.40
2018-02-12T12:09:09.730Z,93659.41
2018-02-12T12:11:36.333Z,93656.11
2018-02-12T12:14:02.923Z,93652.37
2018-02-12T12:16:29.535Z,93653.19
2018-02-12T12:18:56.167Z,93640.80
2018-02-12T12:21:22.744Z,93650.50
2018-02-12T12:23:50.051Z,93642.13
2018-02-12T12:26:16.650Z,93647.95
2018-02-12T12:28:43.259Z,93640.91
2018-02-12T12:31:10.610Z,93639.03
2018-02-12T12:33:37.927Z,93643.17
2018-02-12T12:36:04.552Z,93632.47
2018-02-12T12:38:31.168Z,93634.83
2018-02-12T12:40:57.817Z,93638.45
2018-02-12T12:43:24.388Z,93642.10
2018-02-12T12:45:50.984Z,93646.41
2018-02-12T12:48:17.554Z,93639.61
2018-02-12T12:50:45.210Z,93637.90
2018-02-12T12:53:11.790Z,93637.48
2018-02-12T12:55:38.388Z,93647.28
2018-02-12T12:58:04.985Z,93643.20
2018-02-12T13:00:31.614Z,93646.91
2018-02-12T13:02:58.188Z,93641.64
2018-02-12T13:05:24.770Z,93635.23
2018-02-12T13:07:51.342Z,93628.63
2018-02-12T13:10:18.107Z,93633.88
2018-02-12T13:12:44.712Z,93628.30
2018-02-12T13:15:11.390Z,93634.97
2018-02-12T13:17:37.997Z,93629.66
2018-02-12T13:20:04.572Z,93633.69
2018-02-12T13:22:31.167Z,93631.41
2018-02-12T13:24:57.732Z,93635.94
2018-02-12T13:27:24.334Z,93645.38
2018-02-12T13:29:50.934Z,93645.41
2018-02-12T13:32:17.517Z,93647.20
2018-02-12T13:34:44.110Z,93653.32
2018-02-12T13:37:10.765Z,93644.48
2018-02-12T13:39:38.082Z,93655.94
2018-02-12T13:42:04.707Z,93653.66
2018-02-12T13:44:31.298Z,93653.96
2018-02-12T13:46:58.638Z,93654.78
2018-02-12T13:49:25.212Z,93652.34
2018-02-12T13:51:51.798Z,93649.30
2018-02-12T13:54:18.363Z,93656.99
2018-02-12T13:56:44.978Z,93648.41
2018-02-12T13:59:11.547Z,93646.97
2018-02-12T14:01:38.970Z,93652.70
2018-02-12T14:04:06.399Z,93646.91
2018-02-12T14:06:33.763Z,93644.12
2018-02-12T14:09:00.373Z,93640.45
2018-02-12T14:11:27.017Z,93653.96
2018-02-12T14:13:53.596Z,93652.17
2018-02-12T14:16:20.924Z,93649.44
2018-02-12T14:18:47.521Z,93651.60
2018-02-12T14:21:14.113Z,93639.55
2018-02-12T14:23:40.691Z,93651.60
2018-02-12T14:26:07.273Z,93656.73
2018-02-12T14:28:34.200Z,93659.24
2018-02-12T14:31:00.804Z,93655.56
2018-02-12T14:33:27.419Z,93659.81
2018-02-12T14:35:54.773Z,93655.63
2018-02-12T14:38:22.140Z,93654.20
2018-02-12T14:40:48.730Z,93656.77
2018-02-12T14:43:15.314Z,93660.77
2018-02-12T14:45:42.765Z,93659.95
2018-02-12T14:48:09.462Z,93662.55
2018-02-12T14:50:36.034Z,93659.23
2018-02-12T14:53:02.670Z,93663.73
2018-02-12T14:55:30.012Z,93669.25
2018-02-12T14:57:56.798Z,93672.88
2018-02-12T15:00:23.430Z,93671.88
2018-02-12T15:02:50.034Z,93683.17
2018-02-12T15:05:17.376Z,93700.00
2018-02-12T15:07:43.966Z,93693.28
2018-02-12T15:10:10.503Z,93695.56
2018-02-12T15:12:37.118Z,93697.64
2018-02-12T15:15:03.700Z,93699.80
2018-02-12T15:17:30.298Z,93695.32
2018-02-12T15:19:56.854Z,93694.10
2018-02-12T15:22:23.453Z,93705.64
2018-02-12T15:24:50.056Z,93697.87
2018-02-12T15:27:16.707Z,93701.97
2018-02-12T15:29:44.086Z,93703.47
2018-02-12T15:32:10.834Z,93703.88
2018-02-12T15:34:37.423Z,93703.16
2018-02-12T15:37:04.019Z,93704.53
2018-02-12T15:39:30.616Z,93711.34
2018-02-12T15:41:57.186Z,93707.81
2018-02-12T15:44:23.782Z,93713.42
2018-02-12T15:46:50.415Z,93716.03
2018-02-12T15:49:17.874Z,93714.89
2018-02-12T15:51:44.449Z,93710.81
2018-02-12T15:54:11.081Z,93718.27
2018-02-12T15:56:37.710Z,93714.39
2018-02-12T15:59:05.047Z,93718.39
2018-02-12T16:01:32.382Z,93719.41
2018-02-12T16:03:59.010Z,93727.23
2018-02-12T16:06:25.606Z,93723.27
2018-02-12T16:08:52.187Z,93721.23
2018-02-12T16:11:18.781Z,93726.26
2018-02-12T16:13:45.397Z,93724.66
2018-02-12T16:16:12.725Z,93726.48
2018-02-12T16:18:39.342Z,93734.11
2018-02-12T16:21:05.949Z,93733.48
2018-02-12T16:23:32.604Z,93731.66
2018-02-12T16:25:59.234Z,93732.30
2018-02-12T16:28:25.900Z,93731.36
2018-02-12T16:30:52.469Z,93733.94
2018-02-12T16:33:19.821Z,93733.70
2018-02-12T16:35:47.130Z,93731.48
2018-02-12T16:38:13.711Z,93735.70
2018-02-12T16:40:40.318Z,93733.76
2018-02-12T16:43:07.035Z,93742.58
2018-02-12T16:45:33.598Z,93744.47
2018-02-12T16:48:00.164Z,93746.28
2018-02-12T16:50:26.782Z,93747.56
2018-02-12T16:52:53.357Z,93748.88
2018-02-12T16:55:20.211Z,93756.83
2018-02-12T16:57:46.794Z,93756.30
2018-02-12T17:00:13.390Z,93763.63
2018-02-12T17:02:40.060Z,93766.27
2018-02-12T17:05:06.665Z,93765.78
2018-02-12T17:07:33.272Z,93768.61
2018-02-12T17:09:59.843Z,93774.97
2018-02-12T17:12:26.418Z,93780.11
2018-02-12T17:14:52.993Z,93781.59
2018-02-12T17:17:19.620Z,93784.03
2018-02-12T17:19:46.268Z,93792.22
2018-02-12T17:22:12.904Z,93788.35
2018-02-12T17:24:39.578Z,93790.64
2018-02-12T17:27:06.149Z,93791.73
2018-02-12T17:29:33.562Z,93785.62
2018-02-12T17:32:00.277Z,93790.84
2018-02-12T17:34:26.884Z,93794.48
2018-02-12T17:36:54.196Z,93796.77
2018-02-12T17:39:20.835Z,93798.86
2018-02-12T17:41:47.414Z,93804.63
2018-02-12T17:44:14.029Z,93806.63
2018-02-12T17:46:40.649Z,93810.39
2018-02-12T17:49:07.217Z,93807.58
2018-02-12T17:51:34.592Z,93817.77
2018-02-12T17:54:01.178Z,93822.16
2018-02-12T17:56:27.809Z,93818.70
2018-02-12T17:58:54.423Z,93826.22
2018-02-12T18:01:21.132Z,93823.90
2018-02-12T18:03:48.484Z,93830.30
2018-02-12T18:06:15.822Z,93824.30
2018-02-12T18:08:43.222Z,93831.17
2018-02-12T18:11:09.852Z,93826.22
2018-02-12T18:13:36.420Z,93826.70
2018-02-12T18:16:03.040Z,93823.16
2018-02-12T18:18:29.659Z,93835.95
2018-02-12T18:20:56.273Z,93837.40
2018-02-12T18:23:22.903Z,93838.09
2018-02-12T18:25:49.494Z,93844.11
2018-02-12T18:28:16.139Z,93854.31
2018-02-12T18:30:42.708Z,93854.10
2018-02-12T18:33:09.428Z,93861.06
2018-02-12T18:35:36.818Z,93859.31
2018-02-12T18:38:03.450Z,93855.98
2018-02-12T18:40:30.792Z,93856.88
2018-02-12T18:42:57.397Z,93851.33
2018-02-12T18:45:24.080Z,93856.05
2018-02-12T18:47:51.426Z,93849.36
2018-02-12T18:50:18.793Z,93854.72
2018-02-12T18:52:46.148Z,93851.02
2018-02-12T18:55:13.533Z,93856.66
2018-02-12T18:57:40.142Z,93848.08
2018-02-12T19:00:42.443Z,93856.98
2018-02-12T19:03:09.118Z,93853.33
2018-02-12T19:05:35.694Z,93855.23
2018-02-12T19:08:02.319Z,93858.73
2018-02-12T19:10:29.658Z,93857.47
2018-02-12T19:12:56.237Z,93853.73
2018-02-12T19:15:22.850Z,93858.97
2018-02-12T19:17:50.198Z,93854.77
2018-02-12T19:20:16.782Z,93863.66
2018-02-12T19:22:43.387Z,93864.39
2018-02-12T19:25:10.730Z,93866.20
2018-02-12T19:27:37.326Z,93862.53
2018-02-12T19:30:04.150Z,93861.71
2018-02-12T19:32:30.766Z,93859.13
2018-02-12T19:34:58.130Z,93860.48
2018-02-12T19:37:24.708Z,93861.69
2018-02-12T19:39:51.304Z,93862.39
2018-02-12T19:42:17.996Z,93863.16
2018-02-12T19:44:44.593Z,93860.77
2018-02-12T19:47:11.967Z,93870.71
2018-02-12T19:49:39.319Z,93867.26
2018-02-12T19:52:05.986Z,93867.71
2018-02-12T19:54:32.562Z,93867.20
2018-02-12T19:56:59.162Z,93863.81
2018-02-12T19:59:26.573Z,93866.31
2018-02-12T20:01:53.308Z,93866.83
2018-02-12T20:04:19.889Z,93861.89
2018-02-12T20:06:47.255Z,93868.33
2018-02-12T20:09:13.842Z,93870.66
2018-02-12T20:11:40.446Z,93873.73
2018-02-12T20:14:07.072Z,93879.56
2018-02-12T20:16:34.438Z,93881.50
2018-02-12T20:19:01.080Z,93885.20
2018-02-12T20:21:27.675Z,93885.85
2018-02-12T20:23:54.258Z,93883.12
2018-02-12T20:26:20.906Z,93880.73
2018-02-12T20:28:47.487Z,93889.31
2018-02-12T20:31:14.876Z,93884.85
2018-02-12T20:33:41.504Z,93886.69
2018-02-12T20:36:08.134Z,93886.30
2018-02-12T20:38:35.514Z,93886.84
2018-02-12T20:41:02.207Z,93888.52
2018-02-12T20:43:28.803Z,93892.59
2018-02-12T20:45:55.509Z,93893.45
2018-02-12T20:48:22.866Z,93894.92
2018-02-12T20:50:50.238Z,93908.88
2018-02-12T20:53:16.915Z,93902.58
2018-02-12T20:55:43.535Z,93901.98
2018-02-12T20:58:10.186Z,93896.50
2018-02-12T21:00:36.850Z,93902.37
2018-02-12T21:03:03.470Z,93894.58
2018-02-12T21:05:30.838Z,93904.11
2018-02-12T21:07:57.494Z,93908.05
2018-02-12T21:10:24.821Z,93905.10
2018-02-12T21:12:51.527Z,93914.11
2018-02-12T21:15:18.454Z,93910.64
2018-02-12T21:17:45.082Z,93907.04
2018-02-12T21:20:11.734Z,93911.75
2018-02-12T21:22:38.342Z,93919.25
2018-02-12T21:25:04.996Z,93912.74
2018-02-12T21:27:31.609Z,93920.30
2018-02-12T21:29:58.263Z,93918.95
2018-02-12T21:32:25.611Z,93920.86
2018-02-12T21:34:52.243Z,93918.19
2018-02-12T21:37:19.635Z,93923.59
2018-02-12T21:39:46.288Z,93917.30
2018-02-12T21:42:12.898Z,93915.80
2018-02-12T21:44:39.513Z,93919.75
2018-02-12T21:47:06.956Z,93915.52
2018-02-12T21:49:33.591Z,93919.11
2018-02-12T21:52:00.199Z,93912.68
2018-02-12T21:54:26.818Z,93914.95
2018-02-12T21:56:53.420Z,93916.57
2018-02-12T21:59:20.867Z,93919.67
2018-02-12T22:01:47.483Z,93914.48
2018-02-12T22:04:14.134Z,93910.62
2018-02-12T22:06:40.716Z,93922.02
2018-02-12T22:09:07.393Z,93913.42
2018-02-12T22:11:34.789Z,93910.25
2018-02-12T22:14:02.139Z,93910.37
2018-02-12T22:16:29.457Z,93918.08
2018-02-12T22:18:56.107Z,93912.00
2018-02-12T22:21:22.837Z,93911.71
2018-02-12T22:23:49.418Z,93913.48
2018-02-12T22:26:16.764Z,93914.52
2018-02-12T22:28:43.374Z,93915.66
2018-02-12T22:31:10.062Z,93906.34
2018-02-12T22:33:36.631Z,93905.77
2018-02-12T22:36:03.223Z,93900.60
2018-02-12T22:38:29.933Z,93899.68
2018-02-12T22:40:56.494Z,93904.81
2018-02-12T22:43:23.870Z,93909.27
2018-02-12T22:45:50.541Z,93900.67
2018-02-12T22:48:17.459Z,93900.91
2018-02-12T22:50:44.042Z,93902.20
2018-02-12T22:53:10.614Z,93899.56
2018-02-12T22:55:37.254Z,93906.17
2018-02-12T22:58:03.859Z,93899.39
2018-02-12T23:00:30.686Z,93900.64
2018-02-12T23:02:58.061Z,93905.66
2018-02-12T23:05:24.702Z,93900.84
2018-02-12T23:07:52.031Z,93900.05
2018-02-12T23:10:19.516Z,93909.77
2018-02-12T23:12:46.822Z,93900.02
2018-02-12T23:15:19.593Z,93900.62
2018-02-12T23:17:46.232Z,93894.16
2018-02-12T23:20:12.906Z,93896.84
2018-02-12T23:22:39.483Z,93888.91
2018-02-12T23:25:06.126Z,93890.47
2018-02-12T23:27:32.726Z,93897.55
2018-02-12T23:30:00.207Z,93898.98
2018-02-12T23:32:26.839Z,93893.07
2018-02-12T23:34:54.173Z,93892.10
2018-02-12T23:37:20.777Z,93892.07
2018-02-12T23:39:47.391Z,93886.05
2018-02-12T23:42:13.986Z,93887.32
2018-02-12T23:44:41.312Z,93890.08
2018-02-12T23:47:07.905Z,93887.09
2018-02-12T23:49:34.478Z,93883.19
2018-02-12T23:52:01.942Z,93890.94
2018-02-12T23:54:28.539Z,93884.01
2018-02-12T23:56:55.158Z,93884.04
2018-02-12T23:59:21.761Z,93890.61
